sensor_id;sensor_type;location;lat;lon;timestamp;temperature;humidity
24232;DHT22;12364;47.810;8.810;2023-09-18T03:47:41;21.90;97.50
24232;DHT22;12364;47.810;8.810;2023-09-18T03:50:09;21.90;97.50
24232;DHT22;12364;47.810;8.810;2023-09-18T03:52:37;21.80;97.50
24232;DHT22;12364;47.810;8.810;2023-09-18T03:55:05;21.90;97.70
24232;DHT22;12364;47.810;8.810;2023-09-18T03:57:32;21.80;97.70
24232;DHT22;12364;47.810;8.810;2023-09-18T04:00:00;21.80;97.70
24232;DHT22;12364;47.810;8.810;2023-09-18T04:02:27;21.80;97.70
24232;DHT22;12364;47.810;8.810;2023-09-18T04:04:54;21.90;97.70
24232;DHT22;12364;47.810;8.810;2023-09-18T04:07:21;21.90;97.60
24232;DHT22;12364;47.810;8.810;2023-09-18T04:09:48;21.90;97.60
24232;DHT22;12364;47.810;8.810;2023-09-18T04:12:15;21.90;97.60
24232;DHT22;12364;47.810;8.810;2023-09-18T04:14:42;21.90;97.70
24232;DHT22;12364;47.810;8.810;2023-09-18T04:17:09;21.80;97.70
24232;DHT22;12364;47.810;8.810;2023-09-18T04:19:36;21.80;97.70
24232;DHT22;12364;47.810;8.810;2023-09-18T04:22:03;21.80;97.80
24232;DHT22;12364;47.810;8.810;2023-09-18T04:24:31;21.80;97.80
24232;DHT22;12364;47.810;8.810;2023-09-18T04:26:58;21.70;97.80
24232;DHT22;12364;47.810;8.810;2023-09-18T04:29:25;21.70;97.80
24232;DHT22;12364;47.810;8.810;2023-09-18T04:31:53;21.70;97.70
24232;DHT22;12364;47.810;8.810;2023-09-18T04:34:21;21.70;97.80
24232;DHT22;12364;47.810;8.810;2023-09-18T04:36:49;21.70;97.80
24232;DHT22;12364;47.810;8.810;2023-09-18T04:39:16;21.70;97.70
24232;DHT22;12364;47.810;8.810;2023-09-18T04:41:43;21.80;97.70
24232;DHT22;12364;47.810;8.810;2023-09-18T04:44:10;21.80;97.60
24232;DHT22;12364;47.810;8.810;2023-09-18T04:46:39;21.90;97.60
24232;DHT22;12364;47.810;8.810;2023-09-18T04:49:10;21.70;97.60
24232;DHT22;12364;47.810;8.810;2023-09-18T04:51:38;21.60;97.70
24232;DHT22;12364;47.810;8.810;2023-09-18T04:54:05;21.70;97.70
24232;DHT22;12364;47.810;8.810;2023-09-18T04:56:33;21.70;97.70
24232;DHT22;12364;47.810;8.810;2023-09-18T04:59:00;21.70;97.60
24232;DHT22;12364;47.810;8.810;2023-09-18T05:01:27;21.70;97.70
24232;DHT22;12364;47.810;8.810;2023-09-18T05:03:54;21.70;97.60
24232;DHT22;12364;47.810;8.810;2023-09-18T05:06:21;21.70;97.70
24232;DHT22;12364;47.810;8.810;2023-09-18T05:08:48;21.80;97.70
24232;DHT22;12364;47.810;8.810;2023-09-18T05:11:15;21.70;97.70
24232;DHT22;12364;47.810;8.810;2023-09-18T05:13:43;21.60;97.70
24232;DHT22;12364;47.810;8.810;2023-09-18T05:16:10;21.70;97.70
24232;DHT22;12364;47.810;8.810;2023-09-18T05:18:37;21.60;97.70
24232;DHT22;12364;47.810;8.810;2023-09-18T05:21:04;21.60;97.80
24232;DHT22;12364;47.810;8.810;2023-09-18T05:23:31;21.60;97.80
24232;DHT22;12364;47.810;8.810;2023-09-18T05:25:59;21.50;98.00
24232;DHT22;12364;47.810;8.810;2023-09-18T05:28:26;21.50;98.00
24232;DHT22;12364;47.810;8.810;2023-09-18T05:30:53;21.50;98.00
24232;DHT22;12364;47.810;8.810;2023-09-18T05:33:20;21.50;98.10
24232;DHT22;12364;47.810;8.810;2023-09-18T05:35:47;21.50;98.10
24232;DHT22;12364;47.810;8.810;2023-09-18T05:38:15;21.50;98.00
24232;DHT22;12364;47.810;8.810;2023-09-18T05:40:44;21.50;98.00
24232;DHT22;12364;47.810;8.810;2023-09-18T05:43:11;21.50;98.10
24232;DHT22;12364;47.810;8.810;2023-09-18T05:45:39;21.50;98.10
24232;DHT22;12364;47.810;8.810;2023-09-18T05:48:06;21.50;98.10
24232;DHT22;12364;47.810;8.810;2023-09-18T05:50:34;21.50;98.30
24232;DHT22;12364;47.810;8.810;2023-09-18T05:53:03;21.50;98.30
24232;DHT22;12364;47.810;8.810;2023-09-18T05:55:31;21.50;98.50
24232;DHT22;12364;47.810;8.810;2023-09-18T05:57:59;21.60;98.40
24232;DHT22;12364;47.810;8.810;2023-09-18T06:00:26;21.60;98.40
24232;DHT22;12364;47.810;8.810;2023-09-18T06:02:53;21.50;98.20
24232;DHT22;12364;47.810;8.810;2023-09-18T06:05:20;21.50;98.30
24232;DHT22;12364;47.810;8.810;2023-09-18T06:07:48;21.50;98.50
24232;DHT22;12364;47.810;8.810;2023-09-18T06:10:17;21.50;98.60
24232;DHT22;12364;47.810;8.810;2023-09-18T06:12:45;21.60;98.70
24232;DHT22;12364;47.810;8.810;2023-09-18T06:15:12;21.60;98.80
24232;DHT22;12364;47.810;8.810;2023-09-18T06:17:40;21.70;98.60
24232;DHT22;12364;47.810;8.810;2023-09-18T06:20:08;21.70;98.80
24232;DHT22;12364;47.810;8.810;2023-09-18T06:22:39;21.70;98.70
24232;DHT22;12364;47.810;8.810;2023-09-18T06:25:07;21.70;98.50
24232;DHT22;12364;47.810;8.810;2023-09-18T06:27:34;21.70;98.50
24232;DHT22;12364;47.810;8.810;2023-09-18T06:30:02;21.70;98.70
24232;DHT22;12364;47.810;8.810;2023-09-18T06:32:30;21.70;98.80
24232;DHT22;12364;47.810;8.810;2023-09-18T06:34:57;21.80;98.70
24232;DHT22;12364;47.810;8.810;2023-09-18T06:37:25;21.80;98.90
24232;DHT22;12364;47.810;8.810;2023-09-18T06:39:52;21.80;99.00
24232;DHT22;12364;47.810;8.810;2023-09-18T06:42:19;21.80;99.00
24232;DHT22;12364;47.810;8.810;2023-09-18T06:44:46;21.80;99.10
24232;DHT22;12364;47.810;8.810;2023-09-18T06:47:13;21.70;99.10
24232;DHT22;12364;47.810;8.810;2023-09-18T06:49:41;21.70;99.10
24232;DHT22;12364;47.810;8.810;2023-09-18T06:52:09;21.80;99.00
24232;DHT22;12364;47.810;8.810;2023-09-18T06:54:36;21.80;99.00
24232;DHT22;12364;47.810;8.810;2023-09-18T06:57:03;21.90;99.00
24232;DHT22;12364;47.810;8.810;2023-09-18T06:59:30;21.90;98.40
24232;DHT22;12364;47.810;8.810;2023-09-18T07:01:58;21.80;98.50
24232;DHT22;12364;47.810;8.810;2023-09-18T07:04:25;21.70;98.30
24232;DHT22;12364;47.810;8.810;2023-09-18T07:06:52;21.80;98.20
24232;DHT22;12364;47.810;8.810;2023-09-18T07:09:20;21.80;98.00
24232;DHT22;12364;47.810;8.810;2023-09-18T07:11:49;21.80;98.10
24232;DHT22;12364;47.810;8.810;2023-09-18T07:14:17;21.90;97.90
24232;DHT22;12364;47.810;8.810;2023-09-18T07:16:44;21.90;97.40
24232;DHT22;12364;47.810;8.810;2023-09-18T07:19:11;22.00;97.60
24232;DHT22;12364;47.810;8.810;2023-09-18T07:21:43;22.00;98.10
24232;DHT22;12364;47.810;8.810;2023-09-18T07:24:11;22.00;97.70
24232;DHT22;12364;47.810;8.810;2023-09-18T07:26:44;21.90;97.00
24232;DHT22;12364;47.810;8.810;2023-09-18T07:29:11;21.90;97.10
24232;DHT22;12364;47.810;8.810;2023-09-18T07:31:38;22.00;96.80
24232;DHT22;12364;47.810;8.810;2023-09-18T07:34:06;22.00;97.00
24232;DHT22;12364;47.810;8.810;2023-09-18T07:36:35;22.00;96.80
24232;DHT22;12364;47.810;8.810;2023-09-18T07:39:03;21.90;97.10
24232;DHT22;12364;47.810;8.810;2023-09-18T07:41:32;21.80;97.70
24232;DHT22;12364;47.810;8.810;2023-09-18T07:43:59;21.70;97.80
24232;DHT22;12364;47.810;8.810;2023-09-18T07:46:26;21.70;98.10
24232;DHT22;12364;47.810;8.810;2023-09-18T07:48:53;21.80;98.30
24232;DHT22;12364;47.810;8.810;2023-09-18T07:51:21;21.60;98.80
24232;DHT22;12364;47.810;8.810;2023-09-18T07:53:48;21.50;98.70
24232;DHT22;12364;47.810;8.810;2023-09-18T07:56:15;21.50;98.90
24232;DHT22;12364;47.810;8.810;2023-09-18T07:58:42;21.30;99.30
24232;DHT22;12364;47.810;8.810;2023-09-18T08:01:09;21.30;99.60
24232;DHT22;12364;47.810;8.810;2023-09-18T08:03:37;21.30;99.50
24232;DHT22;12364;47.810;8.810;2023-09-18T08:06:04;21.30;99.50
24232;DHT22;12364;47.810;8.810;2023-09-18T08:08:31;21.40;99.80
24232;DHT22;12364;47.810;8.810;2023-09-18T08:11:00;21.50;99.80
24232;DHT22;12364;47.810;8.810;2023-09-18T08:13:33;21.60;99.70
24232;DHT22;12364;47.810;8.810;2023-09-18T08:16:01;21.70;99.60
24232;DHT22;12364;47.810;8.810;2023-09-18T08:18:28;21.70;99.60
24232;DHT22;12364;47.810;8.810;2023-09-18T08:20:56;21.70;99.40
24232;DHT22;12364;47.810;8.810;2023-09-18T08:23:24;21.80;99.40
24232;DHT22;12364;47.810;8.810;2023-09-18T08:25:51;21.80;99.70
24232;DHT22;12364;47.810;8.810;2023-09-18T08:28:22;21.90;99.80
24232;DHT22;12364;47.810;8.810;2023-09-18T08:30:49;21.90;99.90
24232;DHT22;12364;47.810;8.810;2023-09-18T08:33:16;21.90;99.70
24232;DHT22;12364;47.810;8.810;2023-09-18T08:35:43;21.90;99.90
24232;DHT22;12364;47.810;8.810;2023-09-18T08:38:11;22.00;99.90
24232;DHT22;12364;47.810;8.810;2023-09-18T08:40:39;21.90;99.90
24232;DHT22;12364;47.810;8.810;2023-09-18T08:43:06;22.00;99.90
24232;DHT22;12364;47.810;8.810;2023-09-18T08:48:04;21.90;99.90
24232;DHT22;12364;47.810;8.810;2023-09-18T08:50:33;21.90;99.90
24232;DHT22;12364;47.810;8.810;2023-09-18T08:53:00;21.90;99.90
24232;DHT22;12364;47.810;8.810;2023-09-18T08:55:31;21.90;99.90
24232;DHT22;12364;47.810;8.810;2023-09-18T08:57:59;21.80;99.90
24232;DHT22;12364;47.810;8.810;2023-09-18T09:00:26;21.80;99.90
24232;DHT22;12364;47.810;8.810;2023-09-18T09:02:53;21.80;99.90
24232;DHT22;12364;47.810;8.810;2023-09-18T09:05:21;21.80;99.90
24232;DHT22;12364;47.810;8.810;2023-09-18T09:07:49;21.80;99.90
24232;DHT22;12364;47.810;8.810;2023-09-18T09:10:17;21.70;99.90
24232;DHT22;12364;47.810;8.810;2023-09-18T09:12:57;21.80;99.90
24232;DHT22;12364;47.810;8.810;2023-09-18T09:15:46;21.70;99.90
24232;DHT22;12364;47.810;8.810;2023-09-18T09:18:14;21.60;99.90
24232;DHT22;12364;47.810;8.810;2023-09-18T09:20:59;21.60;99.90
24232;DHT22;12364;47.810;8.810;2023-09-18T09:23:28;21.60;99.90
24232;DHT22;12364;47.810;8.810;2023-09-18T09:26:14;21.50;99.90
24232;DHT22;12364;47.810;8.810;2023-09-18T09:28:43;21.50;99.90
24232;DHT22;12364;47.810;8.810;2023-09-18T09:31:10;21.50;99.90
24232;DHT22;12364;47.810;8.810;2023-09-18T09:33:37;21.50;99.90
24232;DHT22;12364;47.810;8.810;2023-09-18T09:36:07;21.50;99.90
24232;DHT22;12364;47.810;8.810;2023-09-18T09:38:35;21.50;99.90
24232;DHT22;12364;47.810;8.810;2023-09-18T09:41:02;21.60;99.90
24232;DHT22;12364;47.810;8.810;2023-09-18T09:43:30;21.70;99.90
24232;DHT22;12364;47.810;8.810;2023-09-18T09:45:58;21.60;99.90
24232;DHT22;12364;47.810;8.810;2023-09-18T09:48:25;21.60;99.90
24232;DHT22;12364;47.810;8.810;2023-09-18T09:50:56;21.70;99.90
24232;DHT22;12364;47.810;8.810;2023-09-18T09:53:41;21.70;99.90
24232;DHT22;12364;47.810;8.810;2023-09-18T09:56:08;21.80;99.90
24232;DHT22;12364;47.810;8.810;2023-09-18T09:58:35;21.80;99.90
24232;DHT22;12364;47.810;8.810;2023-09-18T10:01:03;21.80;99.90
24232;DHT22;12364;47.810;8.810;2023-09-18T10:03:33;21.90;99.90
24232;DHT22;12364;47.810;8.810;2023-09-18T10:06:02;22.00;99.90
24232;DHT22;12364;47.810;8.810;2023-09-18T10:08:31;22.00;99.90
24232;DHT22;12364;47.810;8.810;2023-09-18T10:11:06;22.00;99.90
24232;DHT22;12364;47.810;8.810;2023-09-18T10:13:48;22.00;99.90
24232;DHT22;12364;47.810;8.810;2023-09-18T10:16:17;22.10;99.90
24232;DHT22;12364;47.810;8.810;2023-09-18T10:21:33;22.10;99.90
24232;DHT22;12364;47.810;8.810;2023-09-18T10:24:17;22.10;99.90
24232;DHT22;12364;47.810;8.810;2023-09-18T10:26:50;22.00;99.90
24232;DHT22;12364;47.810;8.810;2023-09-18T10:29:18;22.00;99.90
24232;DHT22;12364;47.810;8.810;2023-09-18T10:31:46;22.00;99.90
24232;DHT22;12364;47.810;8.810;2023-09-18T10:34:13;22.00;99.90
24232;DHT22;12364;47.810;8.810;2023-09-18T10:36:42;22.00;99.90
24232;DHT22;12364;47.810;8.810;2023-09-18T10:39:11;22.00;99.90
24232;DHT22;12364;47.810;8.810;2023-09-18T10:41:39;21.90;99.90
24232;DHT22;12364;47.810;8.810;2023-09-18T10:44:08;21.90;99.90
24232;DHT22;12364;47.810;8.810;2023-09-18T10:46:37;21.90;99.90
24232;DHT22;12364;47.810;8.810;2023-09-18T10:49:04;21.90;99.90
24232;DHT22;12364;47.810;8.810;2023-09-18T10:51:32;21.90;99.90
24232;DHT22;12364;47.810;8.810;2023-09-18T10:54:02;21.90;99.90
24232;DHT22;12364;47.810;8.810;2023-09-18T10:56:30;21.90;99.90
24232;DHT22;12364;47.810;8.810;2023-09-18T10:58:58;21.90;99.90
24232;DHT22;12364;47.810;8.810;2023-09-18T11:01:25;21.90;99.90
24232;DHT22;12364;47.810;8.810;2023-09-18T11:03:57;21.90;99.90
24232;DHT22;12364;47.810;8.810;2023-09-18T11:06:27;21.90;99.90
24232;DHT22;12364;47.810;8.810;2023-09-18T11:09:05;21.90;99.90
24232;DHT22;12364;47.810;8.810;2023-09-18T11:11:33;21.80;99.90
24232;DHT22;12364;47.810;8.810;2023-09-18T11:14:02;21.90;99.90
24232;DHT22;12364;47.810;8.810;2023-09-18T11:16:37;21.80;99.90
24232;DHT22;12364;47.810;8.810;2023-09-18T11:19:12;21.90;99.90
24232;DHT22;12364;47.810;8.810;2023-09-18T11:21:43;21.90;99.90
24232;DHT22;12364;47.810;8.810;2023-09-18T11:24:16;21.90;99.90
24232;DHT22;12364;47.810;8.810;2023-09-18T11:26:45;21.90;99.90
24232;DHT22;12364;47.810;8.810;2023-09-18T11:29:16;21.90;99.90
24232;DHT22;12364;47.810;8.810;2023-09-18T11:31:55;21.90;99.90
24232;DHT22;12364;47.810;8.810;2023-09-18T11:36:50;21.90;99.90
24232;DHT22;12364;47.810;8.810;2023-09-18T11:39:52;22.00;99.90
24232;DHT22;12364;47.810;8.810;2023-09-18T11:42:13;22.00;99.90
24232;DHT22;12364;47.810;8.810;2023-09-18T11:44:43;22.00;99.90
24232;DHT22;12364;47.810;8.810;2023-09-18T11:47:14;22.00;99.90
24232;DHT22;12364;47.810;8.810;2023-09-18T11:49:47;22.10;99.90
24232;DHT22;12364;47.810;8.810;2023-09-18T11:52:17;22.10;99.90
24232;DHT22;12364;47.810;8.810;2023-09-18T11:54:45;22.10;99.90
24232;DHT22;12364;47.810;8.810;2023-09-18T11:57:13;22.10;99.90
24232;DHT22;12364;47.810;8.810;2023-09-18T11:59:41;22.10;99.90
24232;DHT22;12364;47.810;8.810;2023-09-18T12:02:12;22.20;99.90
24232;DHT22;12364;47.810;8.810;2023-09-18T12:04:47;22.20;99.90
24232;DHT22;12364;47.810;8.810;2023-09-18T12:07:17;22.20;99.90
24232;DHT22;12364;47.810;8.810;2023-09-18T12:09:46;22.20;99.90
24232;DHT22;12364;47.810;8.810;2023-09-18T12:12:13;22.20;99.90
24232;DHT22;12364;47.810;8.810;2023-09-18T12:14:41;22.20;99.90
24232;DHT22;12364;47.810;8.810;2023-09-18T12:17:15;22.30;99.90
24232;DHT22;12364;47.810;8.810;2023-09-18T12:19:51;22.30;99.90
24232;DHT22;12364;47.810;8.810;2023-09-18T12:22:26;22.30;99.90
24232;DHT22;12364;47.810;8.810;2023-09-18T12:24:53;22.40;99.90
24232;DHT22;12364;47.810;8.810;2023-09-18T12:27:21;22.40;99.90
24232;DHT22;12364;47.810;8.810;2023-09-18T12:29:48;22.40;99.90
24232;DHT22;12364;47.810;8.810;2023-09-18T12:32:15;22.40;99.90
24232;DHT22;12364;47.810;8.810;2023-09-18T12:34:42;22.40;99.90
24232;DHT22;12364;47.810;8.810;2023-09-18T12:37:10;22.40;99.90
24232;DHT22;12364;47.810;8.810;2023-09-18T12:39:39;22.40;99.90
24232;DHT22;12364;47.810;8.810;2023-09-18T12:42:06;22.40;99.90
24232;DHT22;12364;47.810;8.810;2023-09-18T12:44:33;22.40;99.90
24232;DHT22;12364;47.810;8.810;2023-09-18T12:47:00;22.40;99.90
24232;DHT22;12364;47.810;8.810;2023-09-18T12:49:29;22.40;99.90
24232;DHT22;12364;47.810;8.810;2023-09-18T12:51:57;22.50;99.90
24232;DHT22;12364;47.810;8.810;2023-09-18T12:57:05;22.50;99.90
24232;DHT22;12364;47.810;8.810;2023-09-18T12:59:33;22.50;99.90
24232;DHT22;12364;47.810;8.810;2023-09-18T13:02:02;22.50;99.90
24232;DHT22;12364;47.810;8.810;2023-09-18T13:04:34;22.60;99.90
24232;DHT22;12364;47.810;8.810;2023-09-18T13:07:14;22.60;99.90
24232;DHT22;12364;47.810;8.810;2023-09-18T13:09:41;22.60;99.90
24232;DHT22;12364;47.810;8.810;2023-09-18T13:12:09;22.60;99.90
24232;DHT22;12364;47.810;8.810;2023-09-18T13:17:21;22.60;99.90
24232;DHT22;12364;47.810;8.810;2023-09-18T13:19:48;22.60;99.90
24232;DHT22;12364;47.810;8.810;2023-09-18T13:22:22;22.60;99.90
24232;DHT22;12364;47.810;8.810;2023-09-18T13:24:49;22.60;99.90
24232;DHT22;12364;47.810;8.810;2023-09-18T13:27:21;22.60;99.90
24232;DHT22;12364;47.810;8.810;2023-09-18T13:29:48;22.60;99.90
24232;DHT22;12364;47.810;8.810;2023-09-18T13:32:15;22.60;99.90
24232;DHT22;12364;47.810;8.810;2023-09-18T13:34:42;22.60;99.90
24232;DHT22;12364;47.810;8.810;2023-09-18T13:37:11;22.60;99.90
24232;DHT22;12364;47.810;8.810;2023-09-18T13:39:38;22.70;99.90
24232;DHT22;12364;47.810;8.810;2023-09-18T13:42:05;22.70;99.90
24232;DHT22;12364;47.810;8.810;2023-09-18T13:44:32;22.70;99.90
24232;DHT22;12364;47.810;8.810;2023-09-18T13:46:59;22.70;99.90
24232;DHT22;12364;47.810;8.810;2023-09-18T13:49:26;22.70;99.90
24232;DHT22;12364;47.810;8.810;2023-09-18T13:51:54;22.80;99.90
24232;DHT22;12364;47.810;8.810;2023-09-18T13:54:23;22.80;99.90
24232;DHT22;12364;47.810;8.810;2023-09-18T13:56:50;22.80;99.90
24232;DHT22;12364;47.810;8.810;2023-09-18T13:59:17;22.80;99.90
24232;DHT22;12364;47.810;8.810;2023-09-18T14:01:44;22.90;99.90
24232;DHT22;12364;47.810;8.810;2023-09-18T14:04:11;22.90;99.90
24232;DHT22;12364;47.810;8.810;2023-09-18T14:06:38;22.90;99.90
24232;DHT22;12364;47.810;8.810;2023-09-18T14:09:05;22.90;99.90
24232;DHT22;12364;47.810;8.810;2023-09-18T14:11:32;22.90;99.90
24232;DHT22;12364;47.810;8.810;2023-09-18T14:13:59;23.00;99.90
24232;DHT22;12364;47.810;8.810;2023-09-18T14:16:26;23.00;99.90
24232;DHT22;12364;47.810;8.810;2023-09-18T14:18:53;23.00;99.90
24232;DHT22;12364;47.810;8.810;2023-09-18T14:21:21;23.00;99.90
24232;DHT22;12364;47.810;8.810;2023-09-18T14:23:48;23.10;99.90
24232;DHT22;12364;47.810;8.810;2023-09-18T14:26:15;23.10;99.90
24232;DHT22;12364;47.810;8.810;2023-09-18T14:28:48;23.10;99.90
24232;DHT22;12364;47.810;8.810;2023-09-18T14:31:15;23.20;99.90
24232;DHT22;12364;47.810;8.810;2023-09-18T14:33:42;23.20;99.90
24232;DHT22;12364;47.810;8.810;2023-09-18T14:36:09;23.10;99.90
24232;DHT22;12364;47.810;8.810;2023-09-18T14:38:36;23.10;99.90
24232;DHT22;12364;47.810;8.810;2023-09-18T14:41:05;23.10;99.90
24232;DHT22;12364;47.810;8.810;2023-09-18T14:43:32;23.20;99.90
24232;DHT22;12364;47.810;8.810;2023-09-18T14:45:59;23.20;99.70
24232;DHT22;12364;47.810;8.810;2023-09-18T14:48:26;23.10;98.90
24232;DHT22;12364;47.810;8.810;2023-09-18T14:50:56;23.00;98.90
24232;DHT22;12364;47.810;8.810;2023-09-18T14:53:24;23.10;99.50
24232;DHT22;12364;47.810;8.810;2023-09-18T14:55:51;23.20;99.90
24232;DHT22;12364;47.810;8.810;2023-09-18T14:58:18;23.20;99.20
24232;DHT22;12364;47.810;8.810;2023-09-18T15:00:49;23.10;98.50
24232;DHT22;12364;47.810;8.810;2023-09-18T15:03:16;23.10;98.50
24232;DHT22;12364;47.810;8.810;2023-09-18T15:05:43;23.10;98.40
24232;DHT22;12364;47.810;8.810;2023-09-18T15:08:10;23.10;98.40
24232;DHT22;12364;47.810;8.810;2023-09-18T15:10:39;23.20;98.70
24232;DHT22;12364;47.810;8.810;2023-09-18T15:13:06;23.20;98.40
24232;DHT22;12364;47.810;8.810;2023-09-18T15:15:33;23.20;98.00
24232;DHT22;12364;47.810;8.810;2023-09-18T15:18:02;23.20;98.40
24232;DHT22;12364;47.810;8.810;2023-09-18T15:20:29;23.20;98.50
24232;DHT22;12364;47.810;8.810;2023-09-18T15:22:56;23.20;97.90
24232;DHT22;12364;47.810;8.810;2023-09-18T15:25:23;23.20;97.70
24232;DHT22;12364;47.810;8.810;2023-09-18T15:27:50;23.20;97.60
24232;DHT22;12364;47.810;8.810;2023-09-18T15:30:17;23.20;97.60
24232;DHT22;12364;47.810;8.810;2023-09-18T15:32:51;23.20;98.00
24232;DHT22;12364;47.810;8.810;2023-09-18T15:35:20;23.10;97.70
24232;DHT22;12364;47.810;8.810;2023-09-18T15:37:51;23.10;98.20
24232;DHT22;12364;47.810;8.810;2023-09-18T15:40:19;23.10;98.70
24232;DHT22;12364;47.810;8.810;2023-09-18T15:42:50;23.00;98.10
24232;DHT22;12364;47.810;8.810;2023-09-18T15:45:17;23.00;97.70
24232;DHT22;12364;47.810;8.810;2023-09-18T15:47:45;23.00;97.60
24232;DHT22;12364;47.810;8.810;2023-09-18T15:50:12;23.00;97.60
24232;DHT22;12364;47.810;8.810;2023-09-18T15:52:40;23.00;98.10
24232;DHT22;12364;47.810;8.810;2023-09-18T15:55:07;23.00;97.60
24232;DHT22;12364;47.810;8.810;2023-09-18T15:57:35;22.90;97.40
24232;DHT22;12364;47.810;8.810;2023-09-18T16:00:02;22.90;98.00
24232;DHT22;12364;47.810;8.810;2023-09-18T16:02:30;22.90;98.50
24232;DHT22;12364;47.810;8.810;2023-09-18T16:05:00;22.90;98.30
24232;DHT22;12364;47.810;8.810;2023-09-18T16:07:32;22.90;97.40
24232;DHT22;12364;47.810;8.810;2023-09-18T16:09:59;22.90;98.20
24232;DHT22;12364;47.810;8.810;2023-09-18T16:12:26;22.90;98.50
24232;DHT22;12364;47.810;8.810;2023-09-18T16:14:55;22.90;98.50
24232;DHT22;12364;47.810;8.810;2023-09-18T16:17:22;22.90;98.30
24232;DHT22;12364;47.810;8.810;2023-09-18T16:19:49;22.90;98.80
24232;DHT22;12364;47.810;8.810;2023-09-18T16:22:16;22.90;98.90
24232;DHT22;12364;47.810;8.810;2023-09-18T16:24:43;22.90;98.30
24232;DHT22;12364;47.810;8.810;2023-09-18T16:27:10;22.80;98.60
24232;DHT22;12364;47.810;8.810;2023-09-18T16:29:39;22.80;97.90
24232;DHT22;12364;47.810;8.810;2023-09-18T16:32:06;22.80;98.70
24232;DHT22;12364;47.810;8.810;2023-09-18T16:34:34;22.90;98.90
24232;DHT22;12364;47.810;8.810;2023-09-18T16:37:01;22.80;98.10
24232;DHT22;12364;47.810;8.810;2023-09-18T16:39:30;22.80;98.30
24232;DHT22;12364;47.810;8.810;2023-09-18T16:41:57;22.80;98.20
24232;DHT22;12364;47.810;8.810;2023-09-18T16:44:24;22.80;98.20
24232;DHT22;12364;47.810;8.810;2023-09-18T16:46:52;22.80;98.20
24232;DHT22;12364;47.810;8.810;2023-09-18T16:49:18;22.80;98.70
24232;DHT22;12364;47.810;8.810;2023-09-18T16:51:49;22.80;98.80
24232;DHT22;12364;47.810;8.810;2023-09-18T16:54:18;22.80;98.50
24232;DHT22;12364;47.810;8.810;2023-09-18T16:56:45;22.70;98.40
24232;DHT22;12364;47.810;8.810;2023-09-18T16:59:12;22.70;98.10
24232;DHT22;12364;47.810;8.810;2023-09-18T17:01:39;22.60;98.10
24232;DHT22;12364;47.810;8.810;2023-09-18T17:04:06;22.60;98.30
24232;DHT22;12364;47.810;8.810;2023-09-18T17:06:34;22.60;98.30
24232;DHT22;12364;47.810;8.810;2023-09-18T17:09:01;22.60;98.80
24232;DHT22;12364;47.810;8.810;2023-09-18T17:11:35;22.60;98.30
24232;DHT22;12364;47.810;8.810;2023-09-18T17:14:02;22.60;98.80
24232;DHT22;12364;47.810;8.810;2023-09-18T17:16:29;22.60;98.70
24232;DHT22;12364;47.810;8.810;2023-09-18T17:18:58;22.50;98.90
24232;DHT22;12364;47.810;8.810;2023-09-18T17:21:44;22.50;98.50
24232;DHT22;12364;47.810;8.810;2023-09-18T17:24:11;22.50;98.70
24232;DHT22;12364;47.810;8.810;2023-09-18T17:26:38;22.50;99.40
24232;DHT22;12364;47.810;8.810;2023-09-18T17:29:05;22.50;99.30
24232;DHT22;12364;47.810;8.810;2023-09-18T17:31:32;22.40;99.40
24232;DHT22;12364;47.810;8.810;2023-09-18T17:33:59;22.40;99.20
24232;DHT22;12364;47.810;8.810;2023-09-18T17:36:26;22.40;99.40
24232;DHT22;12364;47.810;8.810;2023-09-18T17:38:53;22.40;99.00
24232;DHT22;12364;47.810;8.810;2023-09-18T17:41:20;22.40;98.70
24232;DHT22;12364;47.810;8.810;2023-09-18T17:43:47;22.40;99.10
24232;DHT22;12364;47.810;8.810;2023-09-18T17:46:14;22.40;99.10
24232;DHT22;12364;47.810;8.810;2023-09-18T17:48:41;22.40;99.20
24232;DHT22;12364;47.810;8.810;2023-09-18T17:51:08;22.40;99.20
24232;DHT22;12364;47.810;8.810;2023-09-18T17:53:35;22.40;98.80
24232;DHT22;12364;47.810;8.810;2023-09-18T17:56:03;22.30;99.10
24232;DHT22;12364;47.810;8.810;2023-09-18T17:58:30;22.30;98.80
24232;DHT22;12364;47.810;8.810;2023-09-18T18:00:57;22.30;98.60
24232;DHT22;12364;47.810;8.810;2023-09-18T18:03:24;22.30;98.90
24232;DHT22;12364;47.810;8.810;2023-09-18T18:05:52;22.30;99.20
24232;DHT22;12364;47.810;8.810;2023-09-18T18:08:19;22.30;99.00
24232;DHT22;12364;47.810;8.810;2023-09-18T18:10:46;22.30;98.80
24232;DHT22;12364;47.810;8.810;2023-09-18T18:13:13;22.20;98.40
24232;DHT22;12364;47.810;8.810;2023-09-18T18:15:41;22.20;99.00
24232;DHT22;12364;47.810;8.810;2023-09-18T18:18:08;22.20;98.50
24232;DHT22;12364;47.810;8.810;2023-09-18T18:20:37;22.20;99.10
24232;DHT22;12364;47.810;8.810;2023-09-18T18:23:04;22.20;99.40
24232;DHT22;12364;47.810;8.810;2023-09-18T18:25:32;22.20;99.60
24232;DHT22;12364;47.810;8.810;2023-09-18T18:27:59;22.10;99.30
24232;DHT22;12364;47.810;8.810;2023-09-18T18:30:26;22.10;99.30
24232;DHT22;12364;47.810;8.810;2023-09-18T18:32:53;22.10;99.30
24232;DHT22;12364;47.810;8.810;2023-09-18T18:35:20;22.10;99.50
24232;DHT22;12364;47.810;8.810;2023-09-18T18:37:49;22.10;99.50
24232;DHT22;12364;47.810;8.810;2023-09-18T18:40:16;22.10;99.20
24232;DHT22;12364;47.810;8.810;2023-09-18T18:42:44;22.10;99.50
24232;DHT22;12364;47.810;8.810;2023-09-18T18:45:14;22.10;99.60
24232;DHT22;12364;47.810;8.810;2023-09-18T18:47:42;22.10;99.50
24232;DHT22;12364;47.810;8.810;2023-09-18T18:50:09;22.00;99.60
24232;DHT22;12364;47.810;8.810;2023-09-18T18:52:37;22.00;99.50
24232;DHT22;12364;47.810;8.810;2023-09-18T18:55:05;22.00;99.50
24232;DHT22;12364;47.810;8.810;2023-09-18T18:57:32;22.00;99.50
24232;DHT22;12364;47.810;8.810;2023-09-18T18:59:59;22.00;99.60
24232;DHT22;12364;47.810;8.810;2023-09-18T19:02:26;22.00;99.40
24232;DHT22;12364;47.810;8.810;2023-09-18T19:04:53;22.00;99.40
24232;DHT22;12364;47.810;8.810;2023-09-18T19:07:20;22.00;99.30
24232;DHT22;12364;47.810;8.810;2023-09-18T19:09:48;21.90;99.30
24232;DHT22;12364;47.810;8.810;2023-09-18T19:12:20;21.90;99.30
24232;DHT22;12364;47.810;8.810;2023-09-18T19:14:50;21.90;99.40
24232;DHT22;12364;47.810;8.810;2023-09-18T19:17:17;21.80;99.20
24232;DHT22;12364;47.810;8.810;2023-09-18T19:19:44;21.80;99.30
24232;DHT22;12364;47.810;8.810;2023-09-18T19:22:11;21.80;99.10
24232;DHT22;12364;47.810;8.810;2023-09-18T19:24:38;21.80;99.10
24232;DHT22;12364;47.810;8.810;2023-09-18T19:27:05;21.80;99.10
24232;DHT22;12364;47.810;8.810;2023-09-18T19:29:32;21.70;99.20
24232;DHT22;12364;47.810;8.810;2023-09-18T19:31:59;21.70;99.20
24232;DHT22;12364;47.810;8.810;2023-09-18T19:34:26;21.70;99.10
24232;DHT22;12364;47.810;8.810;2023-09-18T19:36:53;21.60;99.00